Dayton, OH (45423)

7:21 AM EST on March 05, 2015 (GMT -0500)
Oregon Historic District | Change Station
CLOSE
Current Station
Personal Weather Station
Location: Dayton, OH
Elevation: 745 ft
Nearby Weather Stations

Elev 745 ft 39.75 °N, 84.18 °W | Updated 5 seconds ago

Overcast
Overcast
19.4 °F
Feels Like 19 °F
N
0.0
Wind Variable Wind from SE
Gusts 0.0 mph

Today
High -- | Low -- °F
--% Chance of Precip.
Yesterday
High -- | Low -- °F
Precip. -- in
7:04 AM 6:32 PM
Full, 100% visible
Pressure 30.35 in
Visibility 10.0 miles
Clouds Overcast 9000 ft
Windchill 19 °F
Dew Point 0 °F
Humidity 43%
Rainfall in
Snow Depth Not available.
UV 0 out of 12
Pollen .60 out of 12
Air Quality Not available.
Flu Activity Not available.
METAR KFFO 051158Z 36009KT 10SM OVC090 M08/M16 A3030 RMK AO2A SLP276 T10811158 11064 21081 52018

More Conditions Fewer Conditions

Pressure 30.35 in
Visibility 10.0 miles
Clouds Overcast 9000 ft
Windchill 19 °F
Dew Point 0 °F
Humidity 43%
Rainfall in
Snow Depth Not available.
UV 0 out of 12
Pollen .60 out of 12
Air Quality Not available.
Flu Activity Not available.
METAR KFFO 051158Z 36009KT 10SM OVC090 M08/M16 A3030 RMK AO2A SLP276 T10811158 11064 21081 52018

More Conditions Fewer Conditions

10-Day Weather Forecast

Almanac

Astronomy

Mar. 05, 2015 Rise Set
Actual Time
Civil Twilight
Nautical Twilight
Astronomical Twilight
Moon
Length of Visible Light
Length of Day
Tomorrow will be .
, % of the Moon is Illuminated

Today's Extremes

State Highs State Lows

Community

WunderPhotos

Upload Photos

1,802,723 photos uploaded!

WunderBlogs® & News

Nearby

Air Quality

  Air Quality AQ Index Pollutant
Not available.

Snow Depth

Station Depth Elevation

Earthquake Activity

City Distance Mag. Time & Date
Minimum magnitude displayed is 2.5.

Coastal Water Temperatures

Place Temperature

Nearby Weather Stations